Time;durP1;ratioP1;P1;durP2;ratioP2;P2;SDS_P1;SDS_P2;PMS_P1;PMS_P2;Temp;Humidity;BMP_temperature;BMP_pressure;BME280_temperature;BME280_humidity;BME280_pressure;Samples;Min_cycle;Max_cycle;Signal;HPM_P1;HPM_P2
2022/11/01 00:00:06;;;;;;;1.65;1.02;;;;;;;;;;4945344;29;20055;-86
2022/11/01 00:02:31;;;;;;;1.10;0.82;;;;;;;;;;4961583;28;20043;-86
2022/11/01 00:04:56;;;;;;;1.67;0.65;;;;;;;;;;4944050;29;20027;-86
2022/11/01 00:07:22;;;;;;;2.08;1.35;;;;;;;;;;4946825;29;20481;-86
2022/11/01 00:09:47;;;;;;;2.03;0.82;;;;;;;;;;4944080;29;20121;-86
2022/11/01 00:12:13;;;;;;;3.50;1.08;;;;;;;;;;4942889;29;20498;-86
2022/11/01 00:14:38;;;;;;;1.15;0.93;;;;;;;;;;4961205;28;20036;-86
2022/11/01 00:17:04;;;;;;;2.55;1.25;;;;;;;;;;4945025;29;20035;-86
2022/11/01 00:19:30;;;;;;;0.85;0.85;;;;;;;;;;4944329;29;20027;-87
2022/11/01 00:21:56;;;;;;;2.78;1.30;;;;;;;;;;4943155;29;20155;-86
2022/11/01 00:24:21;;;;;;;0.70;0.70;;;;;;;;;;4943597;29;20465;-86
2022/11/01 00:26:46;;;;;;;1.02;0.93;;;;;;;;;;4950530;29;20035;-86
2022/11/01 00:29:12;;;;;;;0.80;0.80;;;;;;;;;;4944547;29;20027;-86
2022/11/01 00:31:38;;;;;;;1.67;0.85;;;;;;;;;;4946398;29;20036;-85
2022/11/01 00:34:04;;;;;;;1.48;1.13;;;;;;;;;;4943861;29;20089;-86
2022/11/01 00:36:31;;;;;;;1.27;0.75;;;;;;;;;;4947400;29;20031;-86
2022/11/01 00:38:57;;;;;;;1.38;0.85;;;;;;;;;;4946773;29;20399;-86
2022/11/01 00:41:22;;;;;;;0.98;0.85;;;;;;;;;;4943679;29;20039;-86
2022/11/01 00:43:48;;;;;;;1.40;0.80;;;;;;;;;;4947657;29;20035;-86
2022/11/01 00:46:13;;;;;;;2.45;1.00;;;;;;;;;;4943338;29;20488;-86
2022/11/01 00:48:40;;;;;;;6.88;1.23;;;;;;;;;;4939850;29;20027;-86
2022/11/01 00:51:05;;;;;;;2.50;1.15;;;;;;;;;;4941374;29;20042;-86
2022/11/01 00:53:31;;;;;;;3.60;0.70;;;;;;;;;;4943479;29;20035;-88
2022/11/01 00:56:04;;;;;;;1.13;0.70;;;;;;;;;;4938310;29;20429;-88
2022/11/01 00:58:30;;;;;;;1.58;0.95;;;;;;;;;;4944463;29;20023;-88
2022/11/01 01:00:56;;;;;;;11.82;1.48;;;;;;;;;;4945350;29;20835;-88
2022/11/01 01:03:22;;;;;;;0.90;0.80;;;;;;;;;;4940968;29;20047;-88
2022/11/01 01:05:52;;;;;;;0.88;0.82;;;;;;;;;;4944693;29;20519;-88
2022/11/01 01:08:18;;;;;;;1.20;0.93;;;;;;;;;;4947568;29;20480;-88
2022/11/01 01:10:44;;;;;;;1.77;1.10;;;;;;;;;;4948214;29;20065;-88
2022/11/01 01:13:09;;;;;;;5.63;1.92;;;;;;;;;;4944067;29;20035;-87
2022/11/01 01:15:37;;;;;;;2.78;1.30;;;;;;;;;;4943753;28;20027;-88
2022/11/01 01:18:02;;;;;;;1.50;1.08;;;;;;;;;;4942287;29;20023;-87
2022/11/01 01:20:28;;;;;;;2.83;1.70;;;;;;;;;;4938645;29;20535;-87
2022/11/01 01:22:53;;;;;;;1.15;0.88;;;;;;;;;;4943683;29;20059;-86
2022/11/01 01:25:19;;;;;;;1.08;0.90;;;;;;;;;;4945608;29;20059;-86
2022/11/01 01:27:45;;;;;;;6.50;0.90;;;;;;;;;;4946405;29;20518;-86
2022/11/01 01:30:11;;;;;;;3.10;0.98;;;;;;;;;;4945054;29;20031;-86
2022/11/01 01:32:36;;;;;;;2.53;1.02;;;;;;;;;;4943893;29;20047;-86
2022/11/01 01:35:02;;;;;;;1.10;1.00;;;;;;;;;;4940115;29;20090;-85
2022/11/01 01:37:27;;;;;;;1.13;1.02;;;;;;;;;;4947112;29;20031;-85
2022/11/01 01:39:53;;;;;;;1.23;0.90;;;;;;;;;;4939430;29;20030;-85
2022/11/01 01:42:35;;;;;;;1.60;1.50;;;;;;;;;;4947460;29;21288;-85
2022/11/01 01:45:03;;;;;;;2.00;1.58;;;;;;;;;;4939772;29;20038;-86
2022/11/01 01:47:33;;;;;;;3.38;2.33;;;;;;;;;;4939067;29;20047;-86
2022/11/01 01:49:58;;;;;;;6.45;2.15;;;;;;;;;;4937025;29;20042;-85
2022/11/01 01:52:24;;;;;;;4.78;1.25;;;;;;;;;;4941451;29;20040;-86
2022/11/01 01:54:50;;;;;;;2.05;0.85;;;;;;;;;;4944279;29;20027;-85
2022/11/01 01:57:17;;;;;;;1.58;0.88;;;;;;;;;;4942977;29;20031;-85
2022/11/01 01:59:43;;;;;;;1.77;0.88;;;;;;;;;;4942137;29;20384;-86
2022/11/01 02:02:09;;;;;;;2.47;1.10;;;;;;;;;;4938887;29;20054;-84
2022/11/01 02:04:48;;;;;;;5.25;1.50;;;;;;;;;;4938677;29;20028;-86
2022/11/01 02:07:13;;;;;;;0.90;0.77;;;;;;;;;;4939274;29;20032;-85
2022/11/01 02:09:40;;;;;;;1.27;1.17;;;;;;;;;;4943156;29;20399;-83
2022/11/01 02:12:06;;;;;;;7.95;1.27;;;;;;;;;;4939738;29;20046;-85
2022/11/01 02:14:31;;;;;;;3.38;1.55;;;;;;;;;;4941646;29;20106;-84
2022/11/01 02:17:29;;;;;;;1.08;0.70;;;;;;;;;;4941121;29;20035;-84
2022/11/01 02:20:12;;;;;;;1.73;1.48;;;;;;;;;;4939646;29;20023;-83
2022/11/01 02:23:02;;;;;;;1.52;0.93;;;;;;;;;;4938672;29;20030;-83
2022/11/01 02:25:36;;;;;;;6.82;1.67;;;;;;;;;;4939779;29;20020;-82
2022/11/01 02:28:44;;;;;;;0.98;0.63;;;;;;;;;;4939486;29;20384;-83
2022/11/01 02:31:40;;;;;;;1.25;0.90;;;;;;;;;;4905442;29;20067;-85
2022/11/01 02:34:23;;;;;;;2.22;1.20;;;;;;;;;;4943541;29;20064;-82
2022/11/01 02:37:07;;;;;;;1.65;0.98;;;;;;;;;;4943681;29;20031;-84
2022/11/01 02:39:34;;;;;;;2.10;1.17;;;;;;;;;;4944441;29;20495;-84
2022/11/01 02:42:14;;;;;;;0.80;0.63;;;;;;;;;;4945791;29;20031;-83
2022/11/01 02:44:47;;;;;;;2.03;1.10;;;;;;;;;;4942511;29;20507;-82
2022/11/01 02:47:13;;;;;;;2.65;1.30;;;;;;;;;;4941884;29;20027;-85
2022/11/01 02:49:52;;;;;;;0.88;0.68;;;;;;;;;;4942409;29;20480;-85
2022/11/01 02:52:22;;;;;;;1.10;0.85;;;;;;;;;;4946701;29;20038;-87
2022/11/01 02:54:55;;;;;;;0.88;0.70;;;;;;;;;;4938386;29;20086;-87
2022/11/01 02:57:39;;;;;;;2.47;1.58;;;;;;;;;;4943314;29;20070;-87
2022/11/01 03:00:27;;;;;;;1.25;1.15;;;;;;;;;;4943307;29;20503;-87
2022/11/01 03:03:31;;;;;;;0.95;0.70;;;;;;;;;;4940907;29;20391;-87
2022/11/01 03:06:03;;;;;;;2.65;1.30;;;;;;;;;;4941414;29;20057;-87
2022/11/01 03:08:41;;;;;;;0.93;0.63;;;;;;;;;;4943288;29;20705;-87
2022/11/01 03:11:17;;;;;;;1.90;1.30;;;;;;;;;;4943797;29;20499;-85
2022/11/01 03:13:57;;;;;;;0.85;0.82;;;;;;;;;;4938867;29;20106;-85
2022/11/01 03:16:50;;;;;;;1.35;1.05;;;;;;;;;;4947530;29;20365;-84
2022/11/01 03:19:36;;;;;;;2.38;1.35;;;;;;;;;;4946696;29;20040;-86
2022/11/01 03:22:26;;;;;;;1.75;0.90;;;;;;;;;;4948868;29;20476;-85
2022/11/01 03:25:43;;;;;;;1.45;1.15;;;;;;;;;;4946724;29;20097;-86
2022/11/01 03:28:08;;;;;;;0.55;0.52;;;;;;;;;;4942384;29;20043;-87
2022/11/01 03:30:34;;;;;;;2.75;1.67;;;;;;;;;;4944146;29;20047;-87
2022/11/01 03:32:59;;;;;;;2.55;1.70;;;;;;;;;;4942908;29;20453;-87
2022/11/01 03:35:29;;;;;;;1.48;1.13;;;;;;;;;;4943969;29;20055;-87
2022/11/01 03:37:59;;;;;;;0.80;0.75;;;;;;;;;;4945340;29;20050;-88
2022/11/01 03:40:28;;;;;;;0.85;0.85;;;;;;;;;;4948548;29;20031;-87
2022/11/01 03:42:58;;;;;;;0.57;0.55;;;;;;;;;;4951215;29;20071;-87
2022/11/01 03:45:25;;;;;;;1.30;1.08;;;;;;;;;;4943182;29;20512;-87
2022/11/01 03:47:51;;;;;;;0.80;0.73;;;;;;;;;;4945182;29;20102;-87
2022/11/01 03:50:21;;;;;;;3.22;1.33;;;;;;;;;;4941355;29;20059;-87
2022/11/01 03:52:47;;;;;;;2.17;1.48;;;;;;;;;;4947659;29;20027;-87
2022/11/01 03:55:16;;;;;;;1.13;0.95;;;;;;;;;;4947139;29;20472;-87
2022/11/01 03:57:46;;;;;;;;;;;;;;;;;;4946266;29;20433;-87
2022/11/01 04:00:23;;;;;;;1.03;0.90;;;;;;;;;;4939869;29;19922;-86
2022/11/01 04:02:50;;;;;;;1.60;1.08;;;;;;;;;;4939717;29;20286;-87
2022/11/01 04:05:16;;;;;;;1.20;0.88;;;;;;;;;;4944839;29;20035;-84
2022/11/01 04:07:43;;;;;;;1.50;1.00;;;;;;;;;;4940709;29;20059;-85
2022/11/01 04:10:09;;;;;;;1.60;0.88;;;;;;;;;;4948314;29;20376;-86
2022/11/01 04:12:34;;;;;;;2.35;0.82;;;;;;;;;;4947688;29;20032;-85
2022/11/01 04:20:35;;;;;;;3.55;1.13;;;;;;;;;;4944911;28;20090;-84
2022/11/01 04:23:02;;;;;;;1.75;1.10;;;;;;;;;;4939338;29;20498;-85
2022/11/01 04:25:28;;;;;;;0.90;0.73;;;;;;;;;;4942243;29;20038;-85
2022/11/01 04:27:56;;;;;;;0.52;0.52;;;;;;;;;;4947885;29;20468;-85
2022/11/01 04:30:23;;;;;;;0.68;0.63;;;;;;;;;;4945927;29;20032;-86
2022/11/01 04:32:48;;;;;;;1.35;1.05;;;;;;;;;;4944614;29;20047;-85
2022/11/01 04:35:14;;;;;;;1.33;1.00;;;;;;;;;;4941150;29;20027;-85
2022/11/01 04:37:39;;;;;;;2.38;0.98;;;;;;;;;;4946538;29;20039;-85
2022/11/01 04:40:08;;;;;;;1.55;1.10;;;;;;;;;;4947242;29;20063;-86
2022/11/01 04:42:34;;;;;;;1.13;0.95;;;;;;;;;;4942128;29;20070;-86
2022/11/01 04:45:00;;;;;;;3.72;0.70;;;;;;;;;;4948353;29;20439;-84
2022/11/01 04:47:26;;;;;;;1.20;1.08;;;;;;;;;;4941097;29;20115;-85
2022/11/01 04:49:51;;;;;;;1.05;1.00;;;;;;;;;;4943244;29;20031;-85
2022/11/01 04:52:17;;;;;;;2.13;1.40;;;;;;;;;;4937654;29;20035;-86
2022/11/01 04:54:42;;;;;;;1.25;1.05;;;;;;;;;;4934927;29;20028;-85
2022/11/01 04:57:21;;;;;;;3.00;1.17;;;;;;;;;;4937104;29;20727;-86
2022/11/01 04:59:53;;;;;;;2.53;1.08;;;;;;;;;;4947019;29;20078;-86
2022/11/01 05:02:20;;;;;;;1.15;1.05;;;;;;;;;;4945132;29;20466;-86
2022/11/01 05:04:46;;;;;;;1.73;0.88;;;;;;;;;;4945114;29;20020;-87
2022/11/01 05:07:12;;;;;;;1.38;0.82;;;;;;;;;;4939723;29;20028;-86
2022/11/01 05:09:37;;;;;;;1.77;1.30;;;;;;;;;;4938107;29;20122;-86
2022/11/01 05:12:03;;;;;;;1.08;1.00;;;;;;;;;;4947040;29;20503;-87
2022/11/01 05:14:28;;;;;;;2.00;1.35;;;;;;;;;;4936385;29;20369;-87
2022/11/01 05:16:55;;;;;;;1.50;1.15;;;;;;;;;;4947328;29;20403;-88
2022/11/01 05:19:20;;;;;;;0.63;0.55;;;;;;;;;;4941718;29;20027;-87
2022/11/01 05:21:46;;;;;;;2.03;0.98;;;;;;;;;;4940665;29;20028;-82
2022/11/01 05:24:11;;;;;;;1.30;0.90;;;;;;;;;;4937760;29;20107;-86
2022/11/01 05:26:37;;;;;;;2.63;1.40;;;;;;;;;;4944810;29;20031;-86
2022/11/01 05:29:02;;;;;;;1.35;0.63;;;;;;;;;;4943433;29;20107;-87
2022/11/01 05:31:27;;;;;;;1.35;0.70;;;;;;;;;;4939525;29;20031;-85
2022/11/01 05:33:53;;;;;;;1.23;0.85;;;;;;;;;;4947707;29;20201;-85
2022/11/01 05:36:18;;;;;;;1.65;0.75;;;;;;;;;;4947012;29;20032;-85
2022/11/01 05:38:43;;;;;;;1.13;0.98;;;;;;;;;;4942406;29;20024;-85
2022/11/01 05:41:09;;;;;;;0.75;0.75;;;;;;;;;;4940979;29;20490;-85
2022/11/01 05:43:34;;;;;;;1.60;0.98;;;;;;;;;;4941642;29;20071;-86
2022/11/01 05:46:06;;;;;;;0.95;0.90;;;;;;;;;;4945535;29;20090;-86
2022/11/01 05:48:32;;;;;;;0.75;0.55;;;;;;;;;;4944004;29;20031;-85
2022/11/01 05:50:57;;;;;;;2.20;0.65;;;;;;;;;;4943577;29;20035;-85
2022/11/01 05:53:23;;;;;;;1.20;0.93;;;;;;;;;;4945313;29;20030;-83
2022/11/01 05:55:48;;;;;;;2.40;0.55;;;;;;;;;;4943644;29;20030;-81
2022/11/01 05:58:13;;;;;;;3.55;0.70;;;;;;;;;;4940623;29;20059;-87
2022/11/01 06:00:39;;;;;;;1.42;1.00;;;;;;;;;;4948837;29;20031;-86
2022/11/01 06:03:05;;;;;;;1.85;1.27;;;;;;;;;;4942658;29;20099;-86
2022/11/01 06:05:31;;;;;;;0.20;0.20;;;;;;;;;;4939408;29;20407;-85
2022/11/01 06:07:58;;;;;;;1.23;1.00;;;;;;;;;;4941170;29;20031;-87
2022/11/01 06:10:24;;;;;;;1.95;0.82;;;;;;;;;;4944060;29;20078;-87
2022/11/01 06:12:49;;;;;;;1.38;0.98;;;;;;;;;;4941137;29;20028;-85
2022/11/01 06:15:15;;;;;;;1.00;0.90;;;;;;;;;;4946403;29;20055;-87
2022/11/01 06:17:40;;;;;;;0.90;0.80;;;;;;;;;;4942694;29;20043;-85
2022/11/01 06:20:06;;;;;;;2.78;0.98;;;;;;;;;;4944823;29;20039;-86
2022/11/01 06:22:36;;;;;;;5.13;1.83;;;;;;;;;;4944617;29;20032;-87
2022/11/01 06:25:03;;;;;;;1.13;0.85;;;;;;;;;;4941120;29;20082;-87
2022/11/01 06:27:28;;;;;;;2.15;1.38;;;;;;;;;;4938791;28;20034;-87
2022/11/01 06:29:54;;;;;;;4.05;1.20;;;;;;;;;;4941906;29;20028;-87
2022/11/01 06:32:19;;;;;;;2.97;2.05;;;;;;;;;;4943402;29;20027;-87
2022/11/01 06:34:44;;;;;;;1.48;0.90;;;;;;;;;;4940342;29;20390;-87
2022/11/01 06:37:10;;;;;;;5.05;1.85;;;;;;;;;;4940041;29;20086;-87
2022/11/01 06:39:35;;;;;;;2.13;1.58;;;;;;;;;;4943127;29;20059;-84
2022/11/01 06:42:01;;;;;;;2.33;1.65;;;;;;;;;;4941227;29;20028;-86
2022/11/01 06:44:26;;;;;;;2.63;1.80;;;;;;;;;;4943484;29;20171;-87
2022/11/01 06:46:53;;;;;;;2.75;1.67;;;;;;;;;;4946865;29;21515;-86
2022/11/01 06:49:19;;;;;;;4.45;2.42;;;;;;;;;;4948632;29;20039;-87
2022/11/01 06:51:44;;;;;;;2.80;1.88;;;;;;;;;;4948323;29;20031;-86
2022/11/01 06:54:10;;;;;;;7.43;2.17;;;;;;;;;;4945298;29;20079;-86
2022/11/01 06:56:35;;;;;;;2.47;1.60;;;;;;;;;;4960850;28;20531;-85
2022/11/01 06:59:00;;;;;;;4.20;2.28;;;;;;;;;;4945499;29;20027;-86
2022/11/01 07:01:27;;;;;;;5.75;2.70;;;;;;;;;;4944674;29;20055;-86
2022/11/01 07:03:52;;;;;;;4.22;2.95;;;;;;;;;;4928848;29;20042;-87
2022/11/01 07:06:18;;;;;;;5.07;2.72;;;;;;;;;;4945078;29;20454;-86
2022/11/01 07:08:44;;;;;;;3.95;2.88;;;;;;;;;;4940906;29;20034;-85
2022/11/01 07:11:09;;;;;;;4.88;3.10;;;;;;;;;;4942809;29;20040;-84
2022/11/01 07:13:37;;;;;;;7.60;2.78;;;;;;;;;;4944299;29;20031;-86
2022/11/01 07:16:04;;;;;;;5.00;3.55;;;;;;;;;;4941906;29;20472;-87
2022/11/01 07:18:33;;;;;;;4.30;3.10;;;;;;;;;;4940900;29;20167;-86
2022/11/01 07:21:07;;;;;;;4.45;2.65;;;;;;;;;;4942597;29;20115;-86
2022/11/01 07:23:32;;;;;;;5.88;3.33;;;;;;;;;;4941108;29;20047;-87
2022/11/01 07:25:58;;;;;;;9.43;4.18;;;;;;;;;;4945722;29;20031;-85
2022/11/01 07:28:24;;;;;;;5.20;3.17;;;;;;;;;;4950802;29;20038;-87
2022/11/01 07:31:03;;;;;;;8.65;3.65;;;;;;;;;;4964033;28;20170;-87
2022/11/01 07:33:32;;;;;;;6.20;4.35;;;;;;;;;;4946626;29;20495;-88
2022/11/01 07:36:00;;;;;;;6.68;3.60;;;;;;;;;;4948384;29;20035;-86
2022/11/01 07:38:31;;;;;;;9.40;4.80;;;;;;;;;;4941450;29;20061;-85
2022/11/01 07:40:56;;;;;;;6.95;3.45;;;;;;;;;;4947339;29;20029;-87
2022/11/01 07:43:22;;;;;;;5.30;3.75;;;;;;;;;;4945518;29;20035;-85
2022/11/01 07:45:59;;;;;;;8.77;3.35;;;;;;;;;;4961024;28;20027;-87
2022/11/01 07:48:24;;;;;;;39.95;15.98;;;;;;;;;;4946991;29;20354;-86
2022/11/01 07:50:57;;;;;;;42.38;17.65;;;;;;;;;;4939066;29;20052;-87
2022/11/01 07:53:22;;;;;;;28.95;16.38;;;;;;;;;;4943874;28;20038;-85
2022/11/01 07:55:51;;;;;;;5.63;4.13;;;;;;;;;;4943241;29;20098;-85
2022/11/01 07:58:26;;;;;;;13.68;4.47;;;;;;;;;;4950714;29;20031;-86
2022/11/01 08:00:54;;;;;;;5.32;3.63;;;;;;;;;;4945397;29;20473;-86
2022/11/01 08:03:29;;;;;;;6.15;4.00;;;;;;;;;;4946299;29;20074;-86
2022/11/01 08:05:55;;;;;;;5.38;3.47;;;;;;;;;;4943019;29;20054;-85
2022/11/01 08:08:45;;;;;;;6.65;3.97;;;;;;;;;;4946753;29;20115;-88
2022/11/01 08:11:13;;;;;;;4.75;3.47;;;;;;;;;;4944423;29;20028;-87
2022/11/01 08:17:11;;;;;;;5.03;3.97;;;;;;;;;;4941440;29;20548;-86
2022/11/01 08:19:44;;;;;;;7.63;3.97;;;;;;;;;;4951691;28;20106;-86
2022/11/01 08:22:44;;;;;;;5.72;3.83;;;;;;;;;;4941496;29;20126;-85
2022/11/01 08:25:15;;;;;;;5.15;3.80;;;;;;;;;;4944533;29;20024;-85
2022/11/01 08:27:44;;;;;;;6.97;3.95;;;;;;;;;;4944910;29;20063;-85
2022/11/01 08:30:10;;;;;;;5.03;3.67;;;;;;;;;;4943465;28;20028;-87
2022/11/01 08:32:40;;;;;;;5.05;3.75;;;;;;;;;;4947254;29;20388;-87
2022/11/01 08:35:10;;;;;;;4.95;3.25;;;;;;;;;;4942394;28;20024;-87
2022/11/01 08:37:57;;;;;;;6.78;4.13;;;;;;;;;;4947957;29;20039;-87
2022/11/01 08:40:29;;;;;;;7.22;4.28;;;;;;;;;;4942921;29;20148;-88
2022/11/01 08:43:11;;;;;;;;;;;;;;;;;;;;;
2022/11/01 08:45:54;;;;;;;4.38;2.88;;;;;;;;;;4943386;29;20469;-86
2022/11/01 08:48:36;;;;;;;11.40;4.38;;;;;;;;;;4931082;29;20031;-87
2022/11/01 08:51:05;;;;;;;4.93;3.60;;;;;;;;;;4945244;29;20477;-87
2022/11/01 08:53:44;;;;;;;5.80;3.90;;;;;;;;;;4940280;29;20434;-86
2022/11/01 08:56:15;;;;;;;4.70;3.33;;;;;;;;;;4944204;29;20495;-87
2022/11/01 08:59:01;;;;;;;4.22;3.65;;;;;;;;;;4940714;29;20026;-87
2022/11/01 09:01:32;;;;;;;8.43;4.53;;;;;;;;;;4939809;28;20085;-87
2022/11/01 09:04:01;;;;;;;4.68;2.97;;;;;;;;;;4943732;29;20039;-88
2022/11/01 09:06:27;;;;;;;5.47;2.75;;;;;;;;;;4938755;29;20082;-86
2022/11/01 09:08:54;;;;;;;5.43;3.67;;;;;;;;;;4944131;29;20484;-89
2022/11/01 09:11:21;;;;;;;5.32;3.60;;;;;;;;;;4936631;29;20036;-87
2022/11/01 09:13:46;;;;;;;10.85;3.85;;;;;;;;;;4940155;29;20103;-88
2022/11/01 09:16:12;;;;;;;5.78;3.60;;;;;;;;;;4946769;29;20111;-88
2022/11/01 09:18:37;;;;;;;4.82;2.80;;;;;;;;;;4939682;29;20029;-87
2022/11/01 09:21:03;;;;;;;4.15;3.17;;;;;;;;;;4942945;29;20019;-86
2022/11/01 09:23:29;;;;;;;8.02;3.78;;;;;;;;;;4941653;29;20085;-88
2022/11/01 09:26:06;;;;;;;4.53;2.70;;;;;;;;;;4943873;29;20118;-86
2022/11/01 09:28:33;;;;;;;4.03;3.10;;;;;;;;;;4936721;29;20023;-88
2022/11/01 09:31:03;;;;;;;4.88;3.25;;;;;;;;;;4942637;29;20372;-86
2022/11/01 09:33:29;;;;;;;6.00;4.07;;;;;;;;;;4937007;29;20026;-86
2022/11/01 09:35:54;;;;;;;0.00;0.00;;;;;;;;;;4943892;29;20038;-88
2022/11/01 09:38:20;;;;;;;2.95;1.65;;;;;;;;;;4940896;29;20027;-87
2022/11/01 09:40:55;;;;;;;8.88;5.07;;;;;;;;;;4941979;29;20054;-88
2022/11/01 09:43:23;;;;;;;5.75;3.80;;;;;;;;;;4941707;29;20465;-87
2022/11/01 09:45:51;;;;;;;6.40;4.55;;;;;;;;;;4939663;29;20122;-86
2022/11/01 09:48:17;;;;;;;4.35;3.55;;;;;;;;;;4938178;29;20547;-85
2022/11/01 09:50:44;;;;;;;6.70;3.95;;;;;;;;;;4942338;29;20035;-88
2022/11/01 09:53:28;;;;;;;4.93;3.50;;;;;;;;;;4927818;29;20031;-84
2022/11/01 09:56:11;;;;;;;8.63;3.83;;;;;;;;;;4937330;29;20028;-84
2022/11/01 09:58:57;;;;;;;7.25;4.75;;;;;;;;;;4938569;29;20031;-92
2022/11/01 10:01:28;;;;;;;7.78;3.40;;;;;;;;;;4946994;29;20111;-91
2022/11/01 10:04:37;;;;;;;7.70;4.25;;;;;;;;;;4940077;29;20119;-89
2022/11/01 10:07:05;;;;;;;8.65;3.97;;;;;;;;;;4940429;29;20062;-89
2022/11/01 10:09:52;;;;;;;6.80;3.67;;;;;;;;;;4944653;29;20495;-89
2022/11/01 10:12:17;;;;;;;6.05;2.92;;;;;;;;;;4943942;29;20417;-90
2022/11/01 10:15:08;;;;;;;7.47;3.30;;;;;;;;;;4944019;28;20122;-88
2022/11/01 10:17:51;;;;;;;5.15;3.13;;;;;;;;;;4937433;29;20032;-90
2022/11/01 10:20:18;;;;;;;6.22;3.83;;;;;;;;;;4944376;28;20392;-89
2022/11/01 10:22:47;;;;;;;5.43;3.08;;;;;;;;;;4940901;29;20028;-86
2022/11/01 10:25:13;;;;;;;9.77;4.70;;;;;;;;;;4937205;29;20114;-89
2022/11/01 10:27:59;;;;;;;8.75;3.83;;;;;;;;;;4941884;29;20115;-88
2022/11/01 10:30:27;;;;;;;3.92;2.42;;;;;;;;;;4939917;29;20031;-92
2022/11/01 10:33:01;;;;;;;6.70;3.20;;;;;;;;;;4942178;29;20038;-91
2022/11/01 10:35:53;;;;;;;9.15;3.15;;;;;;;;;;4938874;29;20494;-85
2022/11/01 10:38:31;;;;;;;3.10;2.33;;;;;;;;;;4935890;29;20039;-86
2022/11/01 10:41:24;;;;;;;7.45;3.22;;;;;;;;;;4945280;29;20027;-88
2022/11/01 10:43:56;;;;;;;6.45;3.05;;;;;;;;;;4943319;29;20155;-86
2022/11/01 10:46:30;;;;;;;7.75;3.72;;;;;;;;;;4944548;29;20032;-85
2022/11/01 10:49:00;;;;;;;3.90;2.85;;;;;;;;;;4941425;29;20023;-86
2022/11/01 10:51:29;;;;;;;6.32;2.88;;;;;;;;;;4938277;29;20035;-87
2022/11/01 10:53:58;;;;;;;5.55;2.55;;;;;;;;;;4941902;29;20039;-85
2022/11/01 10:56:31;;;;;;;3.70;2.40;;;;;;;;;;4942631;29;20039;-84
2022/11/01 10:59:03;;;;;;;7.68;3.45;;;;;;;;;;4944957;29;20110;-86
2022/11/01 11:01:35;;;;;;;6.05;3.03;;;;;;;;;;4941682;29;20198;-83
2022/11/01 11:04:03;;;;;;;5.18;3.25;;;;;;;;;;4955352;28;20032;-86
2022/11/01 11:06:30;;;;;;;5.25;3.15;;;;;;;;;;4945399;29;20039;-85
2022/11/01 11:08:55;;;;;;;6.72;3.30;;;;;;;;;;4943604;29;20392;-87
2022/11/01 11:11:31;;;;;;;3.28;2.42;;;;;;;;;;4941426;29;20023;-91
2022/11/01 11:13:59;;;;;;;3.53;2.38;;;;;;;;;;4946548;29;20042;-92
2022/11/01 11:16:43;;;;;;;8.05;3.03;;;;;;;;;;4959784;28;20496;-90
2022/11/01 11:19:20;;;;;;;3.97;2.75;;;;;;;;;;4940013;29;20061;-89
2022/11/01 11:21:48;;;;;;;4.82;3.00;;;;;;;;;;4945238;29;20027;-89
2022/11/01 11:24:19;;;;;;;4.35;2.60;;;;;;;;;;4945843;29;20086;-90
2022/11/01 11:26:48;;;;;;;6.35;2.90;;;;;;;;;;4941549;29;20054;-90
2022/11/01 11:29:53;;;;;;;5.07;3.20;;;;;;;;;;4943148;29;20388;-90
2022/11/01 11:32:18;;;;;;;7.53;2.80;;;;;;;;;;4902522;29;20137;-90
2022/11/01 11:35:01;;;;;;;6.28;3.78;;;;;;;;;;4936413;29;20504;-89
2022/11/01 11:37:34;;;;;;;7.53;3.33;;;;;;;;;;4942352;29;20081;-92
2022/11/01 11:40:21;;;;;;;5.38;3.90;;;;;;;;;;4946884;29;20035;-91
2022/11/01 11:42:52;;;;;;;5.72;3.15;;;;;;;;;;4947924;29;20491;-91
2022/11/01 11:45:28;;;;;;;7.70;2.47;;;;;;;;;;4943861;29;20440;-90
2022/11/01 11:47:55;;;;;;;6.75;3.35;;;;;;;;;;4961154;28;20031;-90
2022/11/01 11:50:32;;;;;;;4.32;2.97;;;;;;;;;;4949041;29;20476;-90
2022/11/01 11:53:02;;;;;;;6.05;2.92;;;;;;;;;;4943440;29;20393;-93
2022/11/01 11:55:33;;;;;;;8.32;3.25;;;;;;;;;;4940438;29;20026;-90
2022/11/01 11:57:59;;;;;;;6.15;3.17;;;;;;;;;;4947412;29;20062;-91
2022/11/01 12:00:28;;;;;;;7.93;3.30;;;;;;;;;;4944836;29;20027;-89
2022/11/01 12:02:54;;;;;;;4.28;3.10;;;;;;;;;;4949284;29;20179;-90
2022/11/01 12:06:00;;;;;;;6.28;2.92;;;;;;;;;;4947191;29;20111;-91
2022/11/01 12:08:31;;;;;;;9.18;3.22;;;;;;;;;;4960857;28;20145;-90
2022/11/01 12:10:57;;;;;;;7.70;2.92;;;;;;;;;;4950142;29;20038;-91
2022/11/01 12:13:32;;;;;;;6.15;2.72;;;;;;;;;;4940519;29;20027;-91
2022/11/01 12:16:15;;;;;;;4.63;2.80;;;;;;;;;;4947584;29;20055;-90
2022/11/01 12:18:48;;;;;;;9.30;3.50;;;;;;;;;;4945288;29;20066;-91
2022/11/01 12:21:37;;;;;;;5.72;3.10;;;;;;;;;;4953483;28;20028;-92
2022/11/01 12:24:18;;;;;;;3.50;2.53;;;;;;;;;;4944716;29;20476;-90
2022/11/01 12:26:45;;;;;;;4.13;3.10;;;;;;;;;;4937455;29;20032;-88
2022/11/01 12:29:29;;;;;;;6.40;2.67;;;;;;;;;;4945615;29;20042;-90
2022/11/01 12:32:00;;;;;;;9.57;2.45;;;;;;;;;;4945739;29;20119;-90
2022/11/01 12:34:30;;;;;;;7.63;3.65;;;;;;;;;;4943014;29;20385;-91
2022/11/01 12:37:03;;;;;;;4.55;2.40;;;;;;;;;;4942118;29;20032;-90
2022/11/01 12:39:37;;;;;;;6.35;2.83;;;;;;;;;;4948588;28;20054;-91
2022/11/01 12:42:03;;;;;;;5.88;2.35;;;;;;;;;;4944483;28;20365;-90
2022/11/01 12:44:33;;;;;;;4.95;2.42;;;;;;;;;;4948809;29;20039;-90
2022/11/01 12:47:07;;;;;;;5.38;2.20;;;;;;;;;;4946406;29;21715;-90
2022/11/01 12:49:54;;;;;;;5.00;2.45;;;;;;;;;;4942905;29;20479;-90
2022/11/01 12:52:43;;;;;;;5.65;2.28;;;;;;;;;;4943895;29;20023;-90
2022/11/01 12:55:11;;;;;;;6.37;2.33;;;;;;;;;;4944349;29;20416;-92
2022/11/01 12:57:38;;;;;;;5.10;2.00;;;;;;;;;;4941429;29;21132;-93
2022/11/01 13:00:05;;;;;;;3.38;1.95;;;;;;;;;;4946993;29;20030;-90
2022/11/01 13:02:52;;;;;;;4.57;2.00;;;;;;;;;;4938342;29;20048;-91
2022/11/01 13:05:27;;;;;;;5.38;2.05;;;;;;;;;;4943855;29;20040;-89
2022/11/01 13:08:17;;;;;;;11.43;2.33;;;;;;;;;;4952408;29;20106;-90
2022/11/01 13:10:45;;;;;;;1.30;1.20;;;;;;;;;;4949516;29;20034;-91
2022/11/01 13:13:25;;;;;;;3.03;1.42;;;;;;;;;;4952972;29;20439;-90
2022/11/01 13:16:13;;;;;;;2.35;1.23;;;;;;;;;;4945692;28;20032;-90
2022/11/01 13:18:49;;;;;;;2.08;1.20;;;;;;;;;;4946782;29;20027;-89
2022/11/01 13:21:21;;;;;;;5.43;1.42;;;;;;;;;;4952748;29;20105;-90
2022/11/01 13:23:47;;;;;;;2.40;1.52;;;;;;;;;;4945290;29;20034;-91
2022/11/01 13:26:35;;;;;;;4.75;1.40;;;;;;;;;;4944793;29;20067;-89
2022/11/01 13:29:16;;;;;;;3.67;1.15;;;;;;;;;;4944520;29;20051;-90
2022/11/01 13:32:00;;;;;;;2.05;0.70;;;;;;;;;;4948226;29;20027;-90
2022/11/01 13:34:40;;;;;;;0.85;0.60;;;;;;;;;;4941833;29;20103;-90
2022/11/01 13:37:44;;;;;;;0.95;0.50;;;;;;;;;;4937023;29;20031;-92
2022/11/01 13:54:24;;;;;;;0.40;0.30;;;;;;;;;;4938156;29;20455;-90
2022/11/01 13:57:23;;;;;;;0.30;0.30;;;;;;;;;;4929511;29;20668;-90
2022/11/01 14:00:01;;;;;;;1.17;0.70;;;;;;;;;;4942116;28;20409;-90
2022/11/01 14:02:26;;;;;;;1.08;0.68;;;;;;;;;;4942276;29;20058;-90
2022/11/01 14:05:09;;;;;;;2.53;0.93;;;;;;;;;;4940374;29;20031;-87
2022/11/01 14:08:03;;;;;;;0.88;0.52;;;;;;;;;;4947121;29;20051;-88
2022/11/01 14:10:29;;;;;;;1.98;0.40;;;;;;;;;;4938803;29;20479;-87
2022/11/01 14:13:06;;;;;;;0.30;0.30;;;;;;;;;;4938480;29;20216;-87
2022/11/01 14:15:35;;;;;;;1.25;0.60;;;;;;;;;;4949603;29;20412;-88
2022/11/01 14:18:10;;;;;;;2.10;0.77;;;;;;;;;;4942147;29;20034;-84
2022/11/01 14:20:40;;;;;;;1.42;1.08;;;;;;;;;;4948461;29;20087;-89
2022/11/01 14:23:27;;;;;;;3.08;1.58;;;;;;;;;;4943625;29;20059;-88
2022/11/01 14:26:17;;;;;;;2.05;0.85;;;;;;;;;;4942693;29;20095;-88
2022/11/01 14:28:47;;;;;;;;;;;;;;;;;;4945559;29;20050;-89
2022/11/01 14:31:18;;;;;;;;;;;;;;;;;;4937201;29;20012;-89
2022/11/01 14:33:47;;;;;;;1.70;0.88;;;;;;;;;;4946720;29;19923;-87
2022/11/01 14:36:14;;;;;;;0.57;0.47;;;;;;;;;;4950957;29;20045;-88
2022/11/01 14:38:56;;;;;;;0.85;0.30;;;;;;;;;;4945294;29;20035;-88
2022/11/01 14:41:23;;;;;;;2.92;0.80;;;;;;;;;;4949480;29;20110;-86
2022/11/01 14:44:00;;;;;;;1.17;0.57;;;;;;;;;;4943728;29;20123;-86
2022/11/01 14:46:30;;;;;;;2.35;0.60;;;;;;;;;;4939570;29;20031;-86
2022/11/01 14:49:15;;;;;;;1.30;0.75;;;;;;;;;;4941835;29;20035;-84
2022/11/01 14:51:57;;;;;;;4.80;0.75;;;;;;;;;;4939245;29;20463;-87
2022/11/01 14:54:33;;;;;;;1.42;0.68;;;;;;;;;;4941275;29;20381;-87
2022/11/01 14:56:59;;;;;;;2.47;0.77;;;;;;;;;;4936360;29;20473;-85
2022/11/01 14:59:26;;;;;;;1.10;0.55;;;;;;;;;;4945811;29;20030;-86
2022/11/01 15:01:55;;;;;;;0.95;0.63;;;;;;;;;;4942462;29;20123;-86
2022/11/01 15:04:24;;;;;;;1.40;0.73;;;;;;;;;;4945640;29;20074;-86
2022/11/01 15:06:50;;;;;;;4.65;1.02;;;;;;;;;;4936111;29;20031;-86
2022/11/01 15:09:21;;;;;;;1.70;0.52;;;;;;;;;;4943175;29;20447;-86
2022/11/01 15:11:48;;;;;;;3.30;0.68;;;;;;;;;;4943299;29;20027;-85
2022/11/01 15:14:21;;;;;;;3.22;0.90;;;;;;;;;;4945683;29;20054;-86
2022/11/01 15:16:49;;;;;;;5.90;1.30;;;;;;;;;;4946252;29;20538;-86
2022/11/01 15:19:26;;;;;;;2.00;0.70;;;;;;;;;;4943263;29;20036;-87
2022/11/01 15:21:53;;;;;;;0.70;0.38;;;;;;;;;;4937709;29;21246;-84
2022/11/01 15:24:23;;;;;;;1.77;0.63;;;;;;;;;;4938604;29;20122;-84
2022/11/01 15:26:49;;;;;;;1.77;0.90;;;;;;;;;;4932725;29;20028;-84
2022/11/01 15:29:20;;;;;;;0.65;0.65;;;;;;;;;;4936869;29;20047;-88
2022/11/01 15:31:54;;;;;;;5.38;1.15;;;;;;;;;;4941171;29;20059;-88
2022/11/01 15:34:24;;;;;;;1.10;0.50;;;;;;;;;;4939941;29;20080;-85